Time;durP1;ratioP1;P1;durP2;ratioP2;P2;SDS_P1;SDS_P2;PMS_P1;PMS_P2;Temp;Humidity;BMP_temperature;BMP_pressure;BME280_temperature;BME280_humidity;BME280_pressure;Samples;Min_cycle;Max_cycle;Signal;HPM_P1;HPM_P2
2022/11/20 00:01:23;;;;;;;25.92;10.57;;;;;;;;;;8268091;28;20048;-83
2022/11/20 00:05:25;;;;;;;26.77;12.02;;;;;;;;;;8269036;28;20109;-84
2022/11/20 00:09:28;;;;;;;37.85;14.77;;;;;;;;;;8268865;28;20054;-85
2022/11/20 00:13:32;;;;;;;34.90;16.08;;;;;;;;;;8268682;28;20181;-84
2022/11/20 00:17:35;;;;;;;27.55;13.80;;;;;;;;;;8246147;28;20043;-85
2022/11/20 00:21:37;;;;;;;21.35;9.50;;;;;;;;;;8236399;28;20138;-83
2022/11/20 00:25:40;;;;;;;20.98;11.68;;;;;;;;;;8258727;28;20060;-83
2022/11/20 00:29:44;;;;;;;38.83;16.75;;;;;;;;;;8246856;28;20055;-85
2022/11/20 00:33:47;;;;;;;44.58;14.90;;;;;;;;;;8239573;28;20055;-84
2022/11/20 00:37:50;;;;;;;33.30;13.93;;;;;;;;;;8243027;28;20057;-84
2022/11/20 00:41:52;;;;;;;35.85;15.43;;;;;;;;;;8252401;28;20047;-83
2022/11/20 00:45:59;;;;;;;31.95;13.90;;;;;;;;;;8242103;28;20047;-83
2022/11/20 00:50:02;;;;;;;26.13;14.15;;;;;;;;;;8249935;28;20050;-83
2022/11/20 00:54:04;;;;;;;27.00;13.63;;;;;;;;;;8268127;28;20049;-84
2022/11/20 00:58:07;;;;;;;34.25;14.52;;;;;;;;;;8267973;28;20443;-83
2022/11/20 01:02:11;;;;;;;32.75;14.70;;;;;;;;;;8267680;28;20089;-83
2022/11/20 01:06:16;;;;;;;36.75;14.70;;;;;;;;;;8267002;28;20047;-83
2022/11/20 01:10:19;;;;;;;31.42;13.73;;;;;;;;;;8268549;28;20061;-84
2022/11/20 01:14:21;;;;;;;32.40;12.30;;;;;;;;;;8267480;28;20116;-83
2022/11/20 01:18:25;;;;;;;27.05;11.25;;;;;;;;;;8267286;28;20050;-83
2022/11/20 01:22:28;;;;;;;37.00;14.05;;;;;;;;;;8267107;28;20098;-83
2022/11/20 01:26:32;;;;;;;20.85;10.68;;;;;;;;;;8267244;28;20050;-83
2022/11/20 01:30:35;;;;;;;29.85;14.32;;;;;;;;;;8267078;28;20054;-83
2022/11/20 01:34:38;;;;;;;21.35;11.07;;;;;;;;;;8284732;28;20641;-85
2022/11/20 01:38:41;;;;;;;30.95;14.02;;;;;;;;;;8292577;28;20250;-83
2022/11/20 01:47:10;;;;;;;38.15;14.82;;;;;;;;;;8262751;28;20478;-83
2022/11/20 01:51:21;;;;;;;36.70;12.40;;;;;;;;;;8267013;28;20525;-83
2022/11/20 01:55:26;;;;;;;;;;;;;;;;;;8266656;28;20046;-83
2022/11/20 01:59:30;;;;;;;23.48;12.80;;;;;;;;;;8266452;28;19929;-84
2022/11/20 02:03:33;;;;;;;25.42;12.65;;;;;;;;;;8266061;28;20046;-83
2022/11/20 02:07:38;;;;;;;24.38;10.85;;;;;;;;;;8265636;28;20042;-82
2022/11/20 02:11:40;;;;;;;24.92;9.60;;;;;;;;;;8265648;28;20038;-84
2022/11/20 02:15:43;;;;;;;23.52;10.63;;;;;;;;;;8265770;28;20051;-83
2022/11/20 02:19:46;;;;;;;36.38;14.70;;;;;;;;;;8265578;28;20053;-83
2022/11/20 02:24:09;;;;;;;38.85;13.85;;;;;;;;;;8265465;28;20117;-83
2022/11/20 02:28:11;;;;;;;27.50;12.43;;;;;;;;;;8265165;28;20057;-83
2022/11/20 02:32:19;;;;;;;24.35;12.15;;;;;;;;;;8265234;28;20050;-83
2022/11/20 02:36:22;;;;;;;29.58;12.30;;;;;;;;;;8265117;28;20092;-83
2022/11/20 02:40:27;;;;;;;35.75;14.10;;;;;;;;;;8264777;28;20046;-83
2022/11/20 02:44:29;;;;;;;31.88;11.73;;;;;;;;;;8264768;28;20050;-83
2022/11/20 02:48:32;;;;;;;33.10;14.90;;;;;;;;;;8264694;28;20054;-83
2022/11/20 02:52:36;;;;;;;31.20;13.57;;;;;;;;;;8264399;28;20046;-83
2022/11/20 02:56:40;;;;;;;31.85;16.05;;;;;;;;;;8263985;28;20096;-83
2022/11/20 03:00:43;;;;;;;32.67;13.50;;;;;;;;;;8265236;28;20457;-83
2022/11/20 03:04:45;;;;;;;33.30;14.55;;;;;;;;;;8264869;28;20470;-83
2022/11/20 03:08:48;;;;;;;26.90;11.68;;;;;;;;;;8264347;28;20046;-83
2022/11/20 03:12:56;;;;;;;28.92;10.07;;;;;;;;;;8264063;28;20046;-83
2022/11/20 03:16:58;;;;;;;26.75;10.30;;;;;;;;;;8264246;28;20046;-83
2022/11/20 03:21:01;;;;;;;31.48;14.00;;;;;;;;;;8264689;28;20125;-83
2022/11/20 03:25:04;;;;;;;37.72;15.07;;;;;;;;;;8263954;28;20038;-83
2022/11/20 03:29:08;;;;;;;30.30;13.27;;;;;;;;;;8264015;28;20055;-83
2022/11/20 03:33:11;;;;;;;36.22;11.48;;;;;;;;;;8270269;28;20059;-82
2022/11/20 03:37:13;;;;;;;23.08;9.93;;;;;;;;;;8270431;28;20049;-83
2022/11/20 03:41:18;;;;;;;27.88;12.93;;;;;;;;;;8270721;28;20474;-83
2022/11/20 03:45:22;;;;;;;35.65;13.95;;;;;;;;;;8270066;28;20104;-83
2022/11/20 03:49:25;;;;;;;31.88;15.82;;;;;;;;;;8269979;28;20042;-83
2022/11/20 03:53:27;;;;;;;21.70;11.63;;;;;;;;;;8270430;28;20053;-83
2022/11/20 03:57:30;;;;;;;33.58;16.17;;;;;;;;;;8269697;28;20050;-83
2022/11/20 04:01:35;;;;;;;30.95;16.27;;;;;;;;;;8269745;28;20085;-83
2022/11/20 04:05:38;;;;;;;42.33;12.15;;;;;;;;;;8270101;28;20513;-83
2022/11/20 04:09:40;;;;;;;35.88;11.57;;;;;;;;;;8269390;28;20070;-83
2022/11/20 04:13:47;;;;;;;36.53;13.00;;;;;;;;;;8268760;28;20491;-83
2022/11/20 04:17:50;;;;;;;27.30;10.73;;;;;;;;;;8269076;28;20057;-83
2022/11/20 04:21:53;;;;;;;27.67;12.73;;;;;;;;;;8269021;28;20117;-83
2022/11/20 04:25:56;;;;;;;26.65;11.10;;;;;;;;;;8268902;28;20057;-83
2022/11/20 04:29:58;;;;;;;28.17;13.02;;;;;;;;;;8268803;28;20506;-83
2022/11/20 04:34:04;;;;;;;35.38;15.80;;;;;;;;;;8268863;28;20073;-83
2022/11/20 04:38:06;;;;;;;31.92;11.63;;;;;;;;;;8268779;28;20050;-83
2022/11/20 04:46:30;;;;;;;25.23;12.00;;;;;;;;;;8268624;28;20042;-83
2022/11/20 04:50:34;;;;;;;31.60;13.10;;;;;;;;;;8268058;28;20086;-84
2022/11/20 04:54:37;;;;;;;38.38;16.65;;;;;;;;;;8268041;28;20050;-85
2022/11/20 04:58:40;;;;;;;36.45;13.38;;;;;;;;;;8267944;28;20072;-83
2022/11/20 05:02:42;;;;;;;25.48;13.18;;;;;;;;;;8267788;28;20163;-82
2022/11/20 05:06:46;;;;;;;20.80;10.02;;;;;;;;;;8268064;28;20050;-83
2022/11/20 05:10:49;;;;;;;26.73;12.73;;;;;;;;;;8267648;28;20525;-83
2022/11/20 05:14:51;;;;;;;25.52;12.68;;;;;;;;;;8261571;28;20050;-83
2022/11/20 05:18:55;;;;;;;25.73;11.40;;;;;;;;;;8260785;28;20050;-83
2022/11/20 05:22:59;;;;;;;20.90;10.48;;;;;;;;;;8263944;28;20065;-84
2022/11/20 05:27:01;;;;;;;30.63;14.77;;;;;;;;;;8249843;28;20069;-83
2022/11/20 05:31:08;;;;;;;38.67;15.70;;;;;;;;;;8258453;28;20065;-83
2022/11/20 05:35:10;;;;;;;32.42;12.85;;;;;;;;;;8250509;28;20054;-84
2022/11/20 05:39:15;;;;;;;25.85;13.57;;;;;;;;;;8243194;28;20705;-83
2022/11/20 05:43:17;;;;;;;27.98;13.65;;;;;;;;;;8238366;28;20050;-83
2022/11/20 05:47:19;;;;;;;39.45;16.45;;;;;;;;;;8235573;28;20054;-86
2022/11/20 05:51:24;;;;;;;32.60;11.98;;;;;;;;;;8232233;28;20042;-84
2022/11/20 05:55:28;;;;;;;30.90;12.15;;;;;;;;;;8237717;28;20479;-84
2022/11/20 05:59:30;;;;;;;33.72;14.05;;;;;;;;;;8240887;28;20050;-84
2022/11/20 06:03:33;;;;;;;24.50;13.90;;;;;;;;;;8251302;28;20046;-84
2022/11/20 06:07:35;;;;;;;28.90;12.50;;;;;;;;;;8245807;28;20056;-84
2022/11/20 06:11:39;;;;;;;31.58;12.88;;;;;;;;;;8258428;28;20474;-84
2022/11/20 06:15:42;;;;;;;25.00;13.07;;;;;;;;;;8264412;28;20053;-84
2022/11/20 06:19:44;;;;;;;38.85;16.17;;;;;;;;;;8250605;28;20097;-84
2022/11/20 06:23:48;;;;;;;40.20;15.10;;;;;;;;;;8246759;28;20455;-85
2022/11/20 06:27:51;;;;;;;36.00;14.85;;;;;;;;;;8243237;28;20069;-85
2022/11/20 06:31:54;;;;;;;34.08;14.05;;;;;;;;;;8277137;28;20061;-85
2022/11/20 06:36:03;;;;;;;42.05;16.60;;;;;;;;;;8288934;28;20050;-85
2022/11/20 06:40:14;;;;;;;34.20;13.88;;;;;;;;;;8261764;28;20085;-84
2022/11/20 06:44:17;;;;;;;64.15;25.55;;;;;;;;;;8256893;28;20046;-83
2022/11/20 06:48:20;;;;;;;69.60;31.52;;;;;;;;;;8257210;28;20486;-83
2022/11/20 06:52:22;;;;;;;53.88;24.00;;;;;;;;;;8265169;28;20093;-83
2022/11/20 06:56:25;;;;;;;53.28;21.13;;;;;;;;;;8242029;28;20057;-83
2022/11/20 07:00:30;;;;;;;146.35;51.17;;;;;;;;;;8262860;28;20383;-83
2022/11/20 07:04:32;;;;;;;39.88;16.98;;;;;;;;;;8253692;28;20046;-84
2022/11/20 07:08:42;;;;;;;68.88;29.02;;;;;;;;;;8254685;28;20058;-85
2022/11/20 07:12:50;;;;;;;94.97;38.40;;;;;;;;;;8236109;28;20051;-84
2022/11/20 07:17:19;;;;;;;59.05;21.35;;;;;;;;;;8247304;28;20056;-85
2022/11/20 07:21:22;;;;;;;93.55;33.92;;;;;;;;;;8261948;28;20096;-83
2022/11/20 07:25:52;;;;;;;94.40;34.50;;;;;;;;;;8264496;28;20466;-86
2022/11/20 07:35:16;;;;;;;209.27;84.38;;;;;;;;;;8212948;28;19945;-86
2022/11/20 07:44:37;;;;;;;55.40;22.70;;;;;;;;;;8598555;23;20588;-86
2022/11/20 07:48:46;;;;;;;38.75;17.77;;;;;;;;;;8221330;28;20077;-87
2022/11/20 08:03:25;;;;;;;54.40;22.42;;;;;;;;;;8236815;28;20061;-85
2022/11/20 08:08:01;;;;;;;48.47;20.88;;;;;;;;;;8236370;28;20047;-86
2022/11/20 08:22:09;;;;;;;54.00;21.35;;;;;;;;;;8261492;28;20061;-86
2022/11/20 08:27:04;;;;;;;68.03;25.10;;;;;;;;;;8227970;28;20059;-85
2022/11/20 08:36:25;;;;;;;48.97;21.48;;;;;;;;;;8259169;23;20057;-86
2022/11/20 08:41:23;;;;;;;36.15;15.48;;;;;;;;;;8264457;28;20052;-86
2022/11/20 08:45:07;;;;;;;42.75;21.40;;;;;;;;;;8262019;28;20164;-86
2022/11/20 08:49:12;;;;;;;43.58;22.15;;;;;;;;;;8236967;28;20065;-86
2022/11/20 08:53:15;;;;;;;45.33;22.58;;;;;;;;;;8264104;28;20050;-87
2022/11/20 08:57:18;;;;;;;50.97;24.35;;;;;;;;;;8248576;28;20050;-87
2022/11/20 09:01:23;;;;;;;45.78;23.48;;;;;;;;;;8253958;28;20490;-87
2022/11/20 09:05:26;;;;;;;47.83;23.65;;;;;;;;;;8252164;28;20050;-87
2022/11/20 09:09:28;;;;;;;48.40;24.73;;;;;;;;;;8261104;28;20047;-87
2022/11/20 09:13:34;;;;;;;48.25;25.38;;;;;;;;;;8264171;28;20410;-87
2022/11/20 09:17:51;;;;;;;42.75;22.45;;;;;;;;;;8265156;28;20046;-87
2022/11/20 09:21:56;;;;;;;41.40;24.42;;;;;;;;;;8265549;28;20046;-88
2022/11/20 09:25:59;;;;;;;42.55;22.95;;;;;;;;;;8260229;28;20425;-88
2022/11/20 09:30:02;;;;;;;41.83;23.45;;;;;;;;;;8267481;28;20049;-88
2022/11/20 09:34:06;;;;;;;47.65;26.33;;;;;;;;;;8266394;28;20046;-88
2022/11/20 09:38:10;;;;;;;47.47;27.33;;;;;;;;;;8257304;28;20057;-88
2022/11/20 09:42:29;;;;;;;43.38;23.10;;;;;;;;;;8256576;28;20073;-88
2022/11/20 09:46:41;;;;;;;54.70;27.35;;;;;;;;;;8274697;28;20125;-88
2022/11/20 09:50:51;;;;;;;40.17;22.55;;;;;;;;;;8271157;28;20042;-88
2022/11/20 09:54:57;;;;;;;38.22;21.85;;;;;;;;;;8266861;28;20049;-88
2022/11/20 09:59:06;;;;;;;41.45;22.40;;;;;;;;;;8257750;28;20423;-87
2022/11/20 10:03:15;;;;;;;34.50;17.13;;;;;;;;;;8264510;28;20482;-86
2022/11/20 10:07:24;;;;;;;37.05;19.88;;;;;;;;;;8256810;28;20506;-86
2022/11/20 10:11:46;;;;;;;43.10;19.50;;;;;;;;;;8256085;28;20038;-88
2022/11/20 10:16:02;;;;;;;43.38;19.98;;;;;;;;;;8258631;28;20508;-86
2022/11/20 10:20:18;;;;;;;43.42;17.85;;;;;;;;;;8244435;28;20054;-86
2022/11/20 10:24:42;;;;;;;43.83;18.05;;;;;;;;;;8263937;28;20121;-85
2022/11/20 10:28:59;;;;;;;34.33;13.60;;;;;;;;;;8260417;28;20431;-86
2022/11/20 10:33:07;;;;;;;42.40;18.17;;;;;;;;;;8255541;28;20485;-87
2022/11/20 10:37:15;;;;;;;37.38;17.05;;;;;;;;;;8264331;28;20065;-87
2022/11/20 10:41:27;;;;;;;37.17;14.55;;;;;;;;;;8252814;28;20093;-88
2022/11/20 10:45:41;;;;;;;40.35;16.13;;;;;;;;;;8250558;28;20049;-87
2022/11/20 10:49:45;;;;;;;42.53;17.45;;;;;;;;;;8261777;28;20107;-88
2022/11/20 10:54:21;;;;;;;44.20;17.85;;;;;;;;;;8264615;28;20053;-88
2022/11/20 11:03:49;;;;;;;43.45;17.60;;;;;;;;;;8264747;28;20568;-86
2022/11/20 11:07:56;;;;;;;38.10;16.10;;;;;;;;;;8290586;28;20440;-86
2022/11/20 11:11:58;;;;;;;45.63;20.30;;;;;;;;;;8267436;28;20148;-86
2022/11/20 11:16:04;;;;;;;32.70;14.27;;;;;;;;;;8283384;28;20045;-88
2022/11/20 11:20:18;;;;;;;30.98;14.90;;;;;;;;;;8272442;28;20133;-86
2022/11/20 11:24:23;;;;;;;14.30;7.45;;;;;;;;;;8277120;28;20045;-87
2022/11/20 11:28:27;;;;;;;36.67;14.52;;;;;;;;;;8274997;28;20042;-85
2022/11/20 11:32:30;;;;;;;36.80;16.08;;;;;;;;;;8282121;28;20111;-86
2022/11/20 11:36:35;;;;;;;39.75;17.50;;;;;;;;;;8286717;28;20042;-87
2022/11/20 11:40:41;;;;;;;38.72;14.60;;;;;;;;;;8296316;28;20554;-87
2022/11/20 11:49:18;;;;;;;35.38;14.60;;;;;;;;;;8279851;28;20049;-88
2022/11/20 11:53:30;;;;;;;31.60;13.65;;;;;;;;;;8287206;28;20050;-88
2022/11/20 11:57:46;;;;;;;23.98;11.57;;;;;;;;;;8294826;28;20093;-88
2022/11/20 12:01:59;;;;;;;19.00;6.80;;;;;;;;;;8274876;28;20042;-87
2022/11/20 12:06:08;;;;;;;33.90;14.00;;;;;;;;;;8289605;28;20061;-88
2022/11/20 12:10:23;;;;;;;31.23;14.77;;;;;;;;;;8306262;28;20085;-87
2022/11/20 12:14:34;;;;;;;39.47;17.77;;;;;;;;;;8307724;28;20045;-87
2022/11/20 12:18:37;;;;;;;31.67;13.25;;;;;;;;;;8329945;28;20030;-87
2022/11/20 12:22:49;;;;;;;29.80;13.27;;;;;;;;;;8331339;28;20038;-87
2022/11/20 12:27:14;;;;;;;30.58;13.50;;;;;;;;;;8303992;28;20393;-87
2022/11/20 12:31:42;;;;;;;72.97;27.75;;;;;;;;;;8309150;28;20103;-86
2022/11/20 12:36:08;;;;;;;33.20;16.42;;;;;;;;;;8306374;28;20041;-88
2022/11/20 12:40:29;;;;;;;37.05;18.55;;;;;;;;;;8287201;28;20049;-88
2022/11/20 12:45:11;;;;;;;30.88;12.75;;;;;;;;;;8289250;28;20678;-86
2022/11/20 12:49:21;;;;;;;;;;;;;;;;;;8297344;28;20038;-86
2022/11/20 12:53:31;;;;;;;37.15;15.90;;;;;;;;;;8290537;28;19930;-86
2022/11/20 12:57:41;;;;;;;39.78;17.77;;;;;;;;;;8292779;28;20136;-88
2022/11/20 13:01:51;;;;;;;38.90;16.80;;;;;;;;;;8294525;28;20049;-88
2022/11/20 13:06:02;;;;;;;32.45;13.68;;;;;;;;;;8287071;28;20041;-87
2022/11/20 13:10:12;;;;;;;30.00;13.77;;;;;;;;;;8290347;28;20049;-87
2022/11/20 13:14:31;;;;;;;40.80;17.83;;;;;;;;;;8286722;28;20046;-87
2022/11/20 13:18:42;;;;;;;44.72;19.08;;;;;;;;;;8276728;28;20050;-87
2022/11/20 13:22:47;;;;;;;220.90;82.07;;;;;;;;;;8293995;28;20049;-87
2022/11/20 13:26:49;;;;;;;35.40;16.35;;;;;;;;;;8277320;28;20491;-86
2022/11/20 13:30:54;;;;;;;44.72;19.30;;;;;;;;;;8282262;28;20045;-87
2022/11/20 13:35:01;;;;;;;34.47;14.57;;;;;;;;;;8264003;28;20418;-87
2022/11/20 13:39:04;;;;;;;31.13;14.35;;;;;;;;;;8284676;28;20054;-87
2022/11/20 13:43:20;;;;;;;61.20;28.55;;;;;;;;;;8287612;28;20053;-87
2022/11/20 13:47:25;;;;;;;49.30;22.10;;;;;;;;;;8287935;28;20399;-86
2022/11/20 13:51:41;;;;;;;40.25;15.45;;;;;;;;;;8291246;28;20042;-88
2022/11/20 13:55:52;;;;;;;49.35;21.23;;;;;;;;;;8286698;28;20046;-87
2022/11/20 13:59:58;;;;;;;38.05;16.23;;;;;;;;;;8286838;28;20089;-87
2022/11/20 14:04:09;;;;;;;44.15;18.88;;;;;;;;;;8297557;28;20128;-87
2022/11/20 14:08:22;;;;;;;46.17;17.63;;;;;;;;;;8279950;28;20050;-86
2022/11/20 14:12:30;;;;;;;40.92;17.30;;;;;;;;;;8280499;28;20049;-87
2022/11/20 14:16:36;;;;;;;43.47;18.00;;;;;;;;;;8293510;28;20111;-88
2022/11/20 14:20:44;;;;;;;46.83;19.88;;;;;;;;;;8293008;28;20124;-86
2022/11/20 14:24:52;;;;;;;57.53;24.85;;;;;;;;;;8273922;28;20570;-87
2022/11/20 14:28:56;;;;;;;44.78;18.85;;;;;;;;;;8278445;28;20453;-86
2022/11/20 14:33:08;;;;;;;80.13;32.25;;;;;;;;;;8272885;28;20046;-87
2022/11/20 14:37:14;;;;;;;60.83;23.85;;;;;;;;;;8261906;28;20057;-87
2022/11/20 14:41:23;;;;;;;44.88;18.88;;;;;;;;;;8273949;28;20042;-88
2022/11/20 14:45:27;;;;;;;40.47;17.33;;;;;;;;;;8274402;28;20038;-88
2022/11/20 14:49:33;;;;;;;55.25;21.65;;;;;;;;;;8270126;28;20046;-87
2022/11/20 14:53:37;;;;;;;47.63;21.10;;;;;;;;;;8266295;28;20141;-87
2022/11/20 14:57:40;;;;;;;56.55;25.60;;;;;;;;;;8278304;28;20053;-87
2022/11/20 15:01:58;;;;;;;57.45;22.83;;;;;;;;;;8279318;28;20609;-86
2022/11/20 15:06:02;;;;;;;57.15;25.58;;;;;;;;;;8269807;28;20050;-86
2022/11/20 15:10:20;;;;;;;49.13;20.23;;;;;;;;;;8280647;28;20053;-85
2022/11/20 15:14:27;;;;;;;73.22;28.17;;;;;;;;;;8271695;28;20457;-86
2022/11/20 15:18:37;;;;;;;58.45;23.50;;;;;;;;;;8276844;28;20649;-87
2022/11/20 15:22:39;;;;;;;62.78;24.45;;;;;;;;;;8276118;28;20053;-86
2022/11/20 15:26:43;;;;;;;67.00;27.65;;;;;;;;;;8277500;28;20050;-86
2022/11/20 15:30:49;;;;;;;54.67;23.88;;;;;;;;;;8279029;28;20046;-86
2022/11/20 15:34:52;;;;;;;62.47;25.38;;;;;;;;;;8280554;28;20053;-85
2022/11/20 15:38:55;;;;;;;53.30;20.48;;;;;;;;;;8285302;28;20049;-85
2022/11/20 15:43:03;;;;;;;47.13;19.35;;;;;;;;;;8286279;28;20049;-86
2022/11/20 15:47:34;;;;;;;50.45;21.27;;;;;;;;;;8289387;23;20026;-85
2022/11/20 15:51:40;;;;;;;69.82;28.35;;;;;;;;;;8279032;28;20038;-85
2022/11/20 15:55:43;;;;;;;72.40;29.50;;;;;;;;;;8262649;28;20043;-85
2022/11/20 15:59:46;;;;;;;45.58;18.42;;;;;;;;;;8275807;28;20046;-85
2022/11/20 16:03:51;;;;;;;66.30;28.77;;;;;;;;;;8272849;28;20073;-87
2022/11/20 16:07:54;;;;;;;47.80;19.45;;;;;;;;;;8280537;28;20069;-86
2022/11/20 16:11:59;;;;;;;70.15;28.10;;;;;;;;;;8274861;28;20054;-85
2022/11/20 16:16:05;;;;;;;71.60;25.60;;;;;;;;;;8281433;28;20049;-85
2022/11/20 16:20:13;;;;;;;43.50;17.50;;;;;;;;;;8273792;28;20045;-86
2022/11/20 16:24:17;;;;;;;121.40;45.28;;;;;;;;;;8270136;28;20097;-85
2022/11/20 16:28:20;;;;;;;70.38;28.55;;;;;;;;;;8269605;28;20120;-86
2022/11/20 16:32:24;;;;;;;59.67;26.73;;;;;;;;;;8275422;28;20046;-85
2022/11/20 16:36:29;;;;;;;54.95;20.52;;;;;;;;;;8278893;28;20042;-86
2022/11/20 16:40:34;;;;;;;62.90;27.33;;;;;;;;;;8274259;28;20046;-86
2022/11/20 16:44:37;;;;;;;54.47;20.95;;;;;;;;;;8272540;28;20113;-86
2022/11/20 16:48:40;;;;;;;65.78;26.50;;;;;;;;;;8280032;28;20133;-86
2022/11/20 16:52:44;;;;;;;53.30;21.50;;;;;;;;;;8274276;28;20054;-86
2022/11/20 16:56:49;;;;;;;52.85;19.75;;;;;;;;;;8272629;28;20173;-86
2022/11/20 17:00:52;;;;;;;44.47;18.25;;;;;;;;;;8276991;28;20050;-85
2022/11/20 17:04:56;;;;;;;48.25;20.30;;;;;;;;;;8286303;28;20049;-85
2022/11/20 17:09:02;;;;;;;62.35;23.52;;;;;;;;;;8286270;28;20057;-85
2022/11/20 17:13:05;;;;;;;47.45;19.42;;;;;;;;;;8290909;28;20511;-85
2022/11/20 17:17:07;;;;;;;54.67;21.60;;;;;;;;;;8294239;28;20050;-85
2022/11/20 17:21:11;;;;;;;54.58;20.88;;;;;;;;;;8292369;28;20046;-86
2022/11/20 17:25:17;;;;;;;55.65;20.05;;;;;;;;;;8284184;28;20050;-86
2022/11/20 17:29:23;;;;;;;48.65;19.30;;;;;;;;;;8296453;28;20049;-86
2022/11/20 17:33:25;;;;;;;43.08;15.43;;;;;;;;;;8289246;28;20042;-85
2022/11/20 17:37:28;;;;;;;46.95;19.23;;;;;;;;;;8286391;28;20414;-86
2022/11/20 17:41:34;;;;;;;55.67;18.67;;;;;;;;;;8281463;28;20053;-85
2022/11/20 17:45:36;;;;;;;36.83;16.98;;;;;;;;;;8286233;28;20081;-86
2022/11/20 17:49:40;;;;;;;52.83;19.63;;;;;;;;;;8273028;28;20054;-85
2022/11/20 17:53:45;;;;;;;58.85;22.15;;;;;;;;;;8289313;28;20049;-84
2022/11/20 17:57:55;;;;;;;61.28;24.70;;;;;;;;;;8292795;28;20061;-86
2022/11/20 18:01:58;;;;;;;59.88;23.15;;;;;;;;;;8297103;28;20512;-86
2022/11/20 18:06:08;;;;;;;58.45;24.48;;;;;;;;;;8297965;28;20037;-85
2022/11/20 18:10:11;;;;;;;66.28;26.98;;;;;;;;;;8287335;28;20482;-85
2022/11/20 18:14:30;;;;;;;55.05;22.33;;;;;;;;;;8300137;28;20047;-85
2022/11/20 18:18:33;;;;;;;58.25;22.85;;;;;;;;;;8295071;28;20047;-84
2022/11/20 18:22:37;;;;;;;53.55;22.38;;;;;;;;;;8281562;28;20046;-85
2022/11/20 18:26:40;;;;;;;63.08;25.88;;;;;;;;;;8291647;28;20072;-87
2022/11/20 18:30:45;;;;;;;79.35;27.60;;;;;;;;;;8278352;28;20400;-87
2022/11/20 18:34:48;;;;;;;82.35;32.45;;;;;;;;;;8289537;28;20042;-86
2022/11/20 18:38:54;;;;;;;69.05;26.83;;;;;;;;;;8288173;28;20651;-86
2022/11/20 18:47:38;;;;;;;58.90;22.95;;;;;;;;;;8194445;29;20114;-86
2022/11/20 18:51:42;;;;;;;85.57;32.13;;;;;;;;;;8238714;28;20784;-86
2022/11/20 18:55:46;;;;;;;74.90;27.08;;;;;;;;;;8292079;28;20128;-86
2022/11/20 18:59:49;;;;;;;72.90;25.65;;;;;;;;;;8280282;28;20051;-85
2022/11/20 19:03:54;;;;;;;94.75;29.70;;;;;;;;;;8280036;28;20490;-86
2022/11/20 19:07:59;;;;;;;72.82;27.40;;;;;;;;;;8278281;28;20125;-85
2022/11/20 19:12:02;;;;;;;70.43;26.20;;;;;;;;;;8260716;28;20552;-88
2022/11/20 19:16:11;;;;;;;82.65;30.25;;;;;;;;;;8271090;28;20050;-87
2022/11/20 19:20:17;;;;;;;76.35;26.90;;;;;;;;;;8244413;28;20061;-86
2022/11/20 19:24:21;;;;;;;65.15;27.38;;;;;;;;;;8287791;28;20042;-86
2022/11/20 19:28:24;;;;;;;70.32;24.90;;;;;;;;;;8300008;28;20046;-87
2022/11/20 19:32:29;;;;;;;69.65;25.33;;;;;;;;;;8299596;28;20041;-87
2022/11/20 19:36:36;;;;;;;49.45;19.13;;;;;;;;;;8295866;28;20050;-87
2022/11/20 19:40:41;;;;;;;82.28;31.45;;;;;;;;;;8278724;28;20069;-83
2022/11/20 19:44:44;;;;;;;66.82;29.85;;;;;;;;;;8287293;28;20046;-85
2022/11/20 19:48:49;;;;;;;75.45;28.90;;;;;;;;;;8298286;28;20441;-85
2022/11/20 19:52:53;;;;;;;70.07;27.63;;;;;;;;;;8280183;28;20060;-85
2022/11/20 19:56:57;;;;;;;92.97;34.92;;;;;;;;;;8297286;28;20042;-83
2022/11/20 20:01:07;;;;;;;84.78;30.20;;;;;;;;;;8296051;28;20441;-85
2022/11/20 20:05:10;;;;;;;69.13;28.38;;;;;;;;;;8280130;28;20045;-85
2022/11/20 20:09:17;;;;;;;82.00;31.33;;;;;;;;;;8292837;28;20478;-87
2022/11/20 20:13:21;;;;;;;88.32;30.55;;;;;;;;;;8292760;28;20046;-87
2022/11/20 20:17:23;;;;;;;89.68;30.17;;;;;;;;;;8303508;28;20602;-82
2022/11/20 20:21:27;;;;;;;80.13;29.48;;;;;;;;;;8300932;28;20038;-84
2022/11/20 20:25:31;;;;;;;62.28;24.63;;;;;;;;;;8302656;28;20080;-83
2022/11/20 20:29:34;;;;;;;75.78;29.00;;;;;;;;;;8301384;28;20604;-83
2022/11/20 20:33:39;;;;;;;105.28;38.60;;;;;;;;;;8298977;28;20045;-83
2022/11/20 20:37:42;;;;;;;86.55;32.53;;;;;;;;;;8290131;28;20042;-83
2022/11/20 20:41:46;;;;;;;155.30;48.10;;;;;;;;;;8289456;28;20442;-84
2022/11/20 20:45:51;;;;;;;100.82;40.70;;;;;;;;;;8299363;28;20030;-84
2022/11/20 20:49:55;;;;;;;91.32;33.60;;;;;;;;;;8300782;28;20065;-84
2022/11/20 20:53:58;;;;;;;82.97;30.27;;;;;;;;;;8300512;28;20073;-83
2022/11/20 20:58:04;;;;;;;114.32;39.33;;;;;;;;;;8300548;28;20050;-84
2022/11/20 21:02:07;;;;;;;151.02;49.58;;;;;;;;;;8300382;28;20552;-84
2022/11/20 21:06:11;;;;;;;103.32;38.03;;;;;;;;;;8277435;28;20166;-83
2022/11/20 21:10:14;;;;;;;122.63;46.50;;;;;;;;;;8291373;28;20050;-83
2022/11/20 21:14:20;;;;;;;114.40;42.50;;;;;;;;;;8294259;28;20050;-83
2022/11/20 21:18:24;;;;;;;102.90;40.60;;;;;;;;;;8290117;28;20540;-83
2022/11/20 21:22:28;;;;;;;92.90;32.90;;;;;;;;;;8292693;28;20409;-84
2022/11/20 21:26:31;;;;;;;82.47;31.60;;;;;;;;;;8299084;28;20653;-83
2022/11/20 21:30:35;;;;;;;77.22;28.63;;;;;;;;;;8299634;28;20046;-83
2022/11/20 21:34:38;;;;;;;81.32;30.58;;;;;;;;;;8299221;28;20065;-83
2022/11/20 21:38:40;;;;;;;78.50;30.40;;;;;;;;;;8299306;28;20042;-84
2022/11/20 21:42:43;;;;;;;89.40;34.85;;;;;;;;;;8299510;28;20049;-83
2022/11/20 21:46:47;;;;;;;93.30;30.88;;;;;;;;;;8299451;28;20098;-83
2022/11/20 21:50:50;;;;;;;86.50;32.58;;;;;;;;;;8299074;28;20058;-84
2022/11/20 21:54:52;;;;;;;88.45;31.23;;;;;;;;;;8299288;28;20046;-84
2022/11/20 21:58:55;;;;;;;87.07;36.40;;;;;;;;;;8300197;28;20409;-84
2022/11/20 22:02:59;;;;;;;76.05;28.83;;;;;;;;;;8298601;28;20049;-84
2022/11/20 22:07:02;;;;;;;132.27;42.22;;;;;;;;;;8298424;28;20048;-83
2022/11/20 22:11:06;;;;;;;116.03;39.92;;;;;;;;;;8298545;28;20050;-84
2022/11/20 22:15:10;;;;;;;121.38;46.78;;;;;;;;;;8297525;28;20048;-84
2022/11/20 22:19:16;;;;;;;99.43;35.90;;;;;;;;;;8290167;28;20046;-85
2022/11/20 22:23:19;;;;;;;101.93;36.35;;;;;;;;;;8297425;28;20042;-84
2022/11/20 22:27:21;;;;;;;108.15;38.63;;;;;;;;;;8296959;28;20061;-84
2022/11/20 22:31:26;;;;;;;102.43;36.13;;;;;;;;;;8297443;28;20548;-83
2022/11/20 22:35:30;;;;;;;111.13;39.10;;;;;;;;;;8297482;28;20096;-83
2022/11/20 22:39:33;;;;;;;104.15;36.25;;;;;;;;;;8297290;28;20050;-84
2022/11/20 22:43:35;;;;;;;113.13;40.78;;;;;;;;;;8296741;28;20042;-83
2022/11/20 22:47:38;;;;;;;94.75;34.50;;;;;;;;;;8296975;28;20061;-84
2022/11/20 22:51:43;;;;;;;110.20;35.42;;;;;;;;;;8296812;28;20053;-84
2022/11/20 22:55:49;;;;;;;105.65;36.97;;;;;;;;;;8295991;28;20045;-85
2022/11/20 22:59:51;;;;;;;95.45;32.38;;;;;;;;;;8296715;28;20050;-84
2022/11/20 23:03:56;;;;;;;106.90;35.33;;;;;;;;;;8296554;28;20049;-84
2022/11/20 23:08:00;;;;;;;98.43;31.83;;;;;;;;;;8296170;28;20130;-83
2022/11/20 23:12:03;;;;;;;74.72;28.17;;;;;;;;;;8295326;28;20034;-84
2022/11/20 23:16:07;;;;;;;99.18;33.47;;;;;;;;;;8296358;28;20153;-84
2022/11/20 23:20:11;;;;;;;100.50;35.80;;;;;;;;;;8296067;28;20049;-83
2022/11/20 23:24:15;;;;;;;84.70;30.80;;;;;;;;;;8288701;28;20485;-84
2022/11/20 23:28:17;;;;;;;83.10;30.50;;;;;;;;;;8295831;28;20050;-84
2022/11/20 23:32:20;;;;;;;104.78;38.03;;;;;;;;;;8296108;28;20042;-84
2022/11/20 23:36:23;;;;;;;71.25;28.85;;;;;;;;;;8296491;28;20053;-84
2022/11/20 23:40:26;;;;;;;80.55;30.30;;;;;;;;;;8300128;28;20485;-84
2022/11/20 23:44:29;;;;;;;78.80;27.33;;;;;;;;;;8321276;28;20053;-84
2022/11/20 23:48:33;;;;;;;79.50;29.55;;;;;;;;;;8311123;28;20065;-84
2022/11/20 23:52:36;;;;;;;68.85;25.92;;;;;;;;;;8302512;28;20046;-84
2022/11/20 23:56:39;;;;;;;77.13;27.25;;;;;;;;;;8302524;28;20045;-83
